sensor_id;sensor_type;location;lat;lon;timestamp;temperature;humidity
3684;DHT22;1858;48.716;9.648;2024-03-29T00:01:21;7.90;1.00
3684;DHT22;1858;48.716;9.648;2024-03-29T00:03:49;8.00;1.00
3684;DHT22;1858;48.716;9.648;2024-03-29T00:06:17;8.00;1.00
3684;DHT22;1858;48.716;9.648;2024-03-29T00:08:44;8.00;1.00
3684;DHT22;1858;48.716;9.648;2024-03-29T00:11:12;8.10;1.00
3684;DHT22;1858;48.716;9.648;2024-03-29T00:13:39;8.10;1.00
3684;DHT22;1858;48.716;9.648;2024-03-29T00:16:07;8.20;1.00
3684;DHT22;1858;48.716;9.648;2024-03-29T00:18:35;8.20;1.00
3684;DHT22;1858;48.716;9.648;2024-03-29T00:21:02;8.30;1.00
3684;DHT22;1858;48.716;9.648;2024-03-29T00:23:30;8.30;1.00
3684;DHT22;1858;48.716;9.648;2024-03-29T00:25:57;8.20;1.00
3684;DHT22;1858;48.716;9.648;2024-03-29T00:28:25;8.40;1.00
3684;DHT22;1858;48.716;9.648;2024-03-29T00:30:53;8.30;1.00
3684;DHT22;1858;48.716;9.648;2024-03-29T00:33:20;8.40;1.00
3684;DHT22;1858;48.716;9.648;2024-03-29T00:35:48;8.40;1.00
3684;DHT22;1858;48.716;9.648;2024-03-29T00:38:15;8.50;1.00
3684;DHT22;1858;48.716;9.648;2024-03-29T00:40:43;8.50;1.00
3684;DHT22;1858;48.716;9.648;2024-03-29T00:43:10;8.50;1.00
3684;DHT22;1858;48.716;9.648;2024-03-29T00:45:39;8.60;1.00
3684;DHT22;1858;48.716;9.648;2024-03-29T00:48:08;8.60;1.00
3684;DHT22;1858;48.716;9.648;2024-03-29T00:50:36;8.70;1.00
3684;DHT22;1858;48.716;9.648;2024-03-29T00:53:06;8.70;1.00
3684;DHT22;1858;48.716;9.648;2024-03-29T00:55:35;8.70;1.00
3684;DHT22;1858;48.716;9.648;2024-03-29T00:58:03;8.70;1.00
3684;DHT22;1858;48.716;9.648;2024-03-29T01:00:32;8.70;1.00
3684;DHT22;1858;48.716;9.648;2024-03-29T01:03:00;8.80;1.00
3684;DHT22;1858;48.716;9.648;2024-03-29T01:05:28;8.80;1.00
3684;DHT22;1858;48.716;9.648;2024-03-29T01:07:57;8.80;1.00
3684;DHT22;1858;48.716;9.648;2024-03-29T01:10:26;8.90;1.00
3684;DHT22;1858;48.716;9.648;2024-03-29T01:12:54;8.90;1.00
3684;DHT22;1858;48.716;9.648;2024-03-29T01:15:22;8.90;1.00
3684;DHT22;1858;48.716;9.648;2024-03-29T01:17:51;8.90;1.00
3684;DHT22;1858;48.716;9.648;2024-03-29T01:20:19;8.90;1.00
3684;DHT22;1858;48.716;9.648;2024-03-29T01:22:48;8.90;1.00
3684;DHT22;1858;48.716;9.648;2024-03-29T01:25:16;8.90;1.00
3684;DHT22;1858;48.716;9.648;2024-03-29T01:27:45;8.80;1.00
3684;DHT22;1858;48.716;9.648;2024-03-29T01:30:13;8.80;1.00
3684;DHT22;1858;48.716;9.648;2024-03-29T01:32:42;8.80;1.00
3684;DHT22;1858;48.716;9.648;2024-03-29T01:35:10;8.80;1.00
3684;DHT22;1858;48.716;9.648;2024-03-29T01:37:39;8.70;1.00
3684;DHT22;1858;48.716;9.648;2024-03-29T01:40:07;8.60;1.00
3684;DHT22;1858;48.716;9.648;2024-03-29T01:42:37;8.50;1.00
3684;DHT22;1858;48.716;9.648;2024-03-29T01:45:06;8.50;1.00
3684;DHT22;1858;48.716;9.648;2024-03-29T01:47:35;8.50;1.00
3684;DHT22;1858;48.716;9.648;2024-03-29T01:50:04;8.40;1.00
3684;DHT22;1858;48.716;9.648;2024-03-29T01:52:33;8.30;1.00
3684;DHT22;1858;48.716;9.648;2024-03-29T01:55:02;8.40;1.00
3684;DHT22;1858;48.716;9.648;2024-03-29T01:57:30;8.30;1.00
3684;DHT22;1858;48.716;9.648;2024-03-29T01:59:59;8.40;1.00
3684;DHT22;1858;48.716;9.648;2024-03-29T02:02:27;8.40;1.00
3684;DHT22;1858;48.716;9.648;2024-03-29T02:04:57;8.40;1.00
3684;DHT22;1858;48.716;9.648;2024-03-29T02:07:26;8.30;1.00
3684;DHT22;1858;48.716;9.648;2024-03-29T02:09:54;8.30;1.00
3684;DHT22;1858;48.716;9.648;2024-03-29T02:12:23;8.30;1.00
3684;DHT22;1858;48.716;9.648;2024-03-29T02:14:51;8.30;1.00
3684;DHT22;1858;48.716;9.648;2024-03-29T02:17:19;8.40;1.00
3684;DHT22;1858;48.716;9.648;2024-03-29T02:19:48;8.30;1.00
3684;DHT22;1858;48.716;9.648;2024-03-29T02:22:17;8.30;1.00
3684;DHT22;1858;48.716;9.648;2024-03-29T02:24:48;8.30;1.00
3684;DHT22;1858;48.716;9.648;2024-03-29T02:27:17;8.30;1.00
3684;DHT22;1858;48.716;9.648;2024-03-29T02:29:45;8.40;1.00
3684;DHT22;1858;48.716;9.648;2024-03-29T02:32:14;8.40;1.00
3684;DHT22;1858;48.716;9.648;2024-03-29T02:34:42;8.40;1.00
3684;DHT22;1858;48.716;9.648;2024-03-29T02:37:11;8.40;1.00
3684;DHT22;1858;48.716;9.648;2024-03-29T02:39:39;8.50;1.00
3684;DHT22;1858;48.716;9.648;2024-03-29T02:42:07;8.40;1.00
3684;DHT22;1858;48.716;9.648;2024-03-29T02:44:36;8.50;1.00
3684;DHT22;1858;48.716;9.648;2024-03-29T02:47:04;8.50;1.00
3684;DHT22;1858;48.716;9.648;2024-03-29T02:49:32;8.50;1.00
3684;DHT22;1858;48.716;9.648;2024-03-29T02:52:01;8.50;1.00
3684;DHT22;1858;48.716;9.648;2024-03-29T02:54:49;8.50;1.00
3684;DHT22;1858;48.716;9.648;2024-03-29T02:57:17;8.50;1.00
3684;DHT22;1858;48.716;9.648;2024-03-29T02:59:45;8.50;1.00
3684;DHT22;1858;48.716;9.648;2024-03-29T03:02:14;8.60;1.00
3684;DHT22;1858;48.716;9.648;2024-03-29T03:04:42;8.60;1.00
3684;DHT22;1858;48.716;9.648;2024-03-29T03:07:11;8.60;1.00
3684;DHT22;1858;48.716;9.648;2024-03-29T03:09:57;8.70;1.00
3684;DHT22;1858;48.716;9.648;2024-03-29T03:12:44;8.70;1.00
3684;DHT22;1858;48.716;9.648;2024-03-29T03:15:12;8.70;1.00
3684;DHT22;1858;48.716;9.648;2024-03-29T03:17:40;8.60;1.00
3684;DHT22;1858;48.716;9.648;2024-03-29T03:20:09;8.60;1.00
3684;DHT22;1858;48.716;9.648;2024-03-29T03:22:39;8.60;1.00
3684;DHT22;1858;48.716;9.648;2024-03-29T03:25:08;8.60;1.00
3684;DHT22;1858;48.716;9.648;2024-03-29T03:27:36;8.70;1.00
3684;DHT22;1858;48.716;9.648;2024-03-29T03:30:05;8.70;1.00
3684;DHT22;1858;48.716;9.648;2024-03-29T03:32:54;8.70;1.00
3684;DHT22;1858;48.716;9.648;2024-03-29T03:35:23;8.70;1.00
3684;DHT22;1858;48.716;9.648;2024-03-29T03:38:10;8.60;1.00
3684;DHT22;1858;48.716;9.648;2024-03-29T03:40:39;8.60;1.00
3684;DHT22;1858;48.716;9.648;2024-03-29T03:43:10;8.70;1.00
3684;DHT22;1858;48.716;9.648;2024-03-29T03:46:01;8.80;1.00
3684;DHT22;1858;48.716;9.648;2024-03-29T03:48:30;8.80;1.00
3684;DHT22;1858;48.716;9.648;2024-03-29T03:50:59;8.90;1.00
3684;DHT22;1858;48.716;9.648;2024-03-29T03:53:27;9.00;1.00
3684;DHT22;1858;48.716;9.648;2024-03-29T03:55:55;9.00;1.00
3684;DHT22;1858;48.716;9.648;2024-03-29T03:58:24;9.00;1.00
3684;DHT22;1858;48.716;9.648;2024-03-29T04:00:52;9.00;1.00
3684;DHT22;1858;48.716;9.648;2024-03-29T04:03:20;9.00;1.00
3684;DHT22;1858;48.716;9.648;2024-03-29T04:05:49;9.00;1.00
3684;DHT22;1858;48.716;9.648;2024-03-29T04:08:17;9.10;1.00
3684;DHT22;1858;48.716;9.648;2024-03-29T04:10:46;9.10;1.00
3684;DHT22;1858;48.716;9.648;2024-03-29T04:13:14;9.20;1.00
3684;DHT22;1858;48.716;9.648;2024-03-29T04:15:43;9.20;1.00
3684;DHT22;1858;48.716;9.648;2024-03-29T04:18:11;9.30;1.00
3684;DHT22;1858;48.716;9.648;2024-03-29T04:20:40;9.30;1.00
3684;DHT22;1858;48.716;9.648;2024-03-29T04:23:08;9.50;1.00
3684;DHT22;1858;48.716;9.648;2024-03-29T04:25:36;9.30;1.00
3684;DHT22;1858;48.716;9.648;2024-03-29T04:28:05;9.30;1.00
3684;DHT22;1858;48.716;9.648;2024-03-29T04:30:33;9.30;1.00
3684;DHT22;1858;48.716;9.648;2024-03-29T04:33:01;9.30;1.00
3684;DHT22;1858;48.716;9.648;2024-03-29T04:35:30;9.30;1.00
3684;DHT22;1858;48.716;9.648;2024-03-29T04:37:58;9.30;1.00
3684;DHT22;1858;48.716;9.648;2024-03-29T04:40:27;9.30;1.00
3684;DHT22;1858;48.716;9.648;2024-03-29T04:42:55;9.50;1.00
3684;DHT22;1858;48.716;9.648;2024-03-29T04:45:23;9.50;1.00
3684;DHT22;1858;48.716;9.648;2024-03-29T04:47:52;9.50;1.00
3684;DHT22;1858;48.716;9.648;2024-03-29T04:50:20;9.60;1.00
3684;DHT22;1858;48.716;9.648;2024-03-29T04:52:48;9.50;1.00
3684;DHT22;1858;48.716;9.648;2024-03-29T04:55:17;9.50;1.00
3684;DHT22;1858;48.716;9.648;2024-03-29T04:57:45;9.50;1.00
3684;DHT22;1858;48.716;9.648;2024-03-29T05:00:14;9.60;1.00
3684;DHT22;1858;48.716;9.648;2024-03-29T05:02:42;9.60;1.00
3684;DHT22;1858;48.716;9.648;2024-03-29T05:05:10;9.60;1.00
3684;DHT22;1858;48.716;9.648;2024-03-29T05:07:39;9.60;1.00
3684;DHT22;1858;48.716;9.648;2024-03-29T05:10:08;9.70;1.00
3684;DHT22;1858;48.716;9.648;2024-03-29T05:12:38;9.60;1.00
3684;DHT22;1858;48.716;9.648;2024-03-29T05:15:07;9.60;1.00
3684;DHT22;1858;48.716;9.648;2024-03-29T05:17:36;9.60;1.00
3684;DHT22;1858;48.716;9.648;2024-03-29T05:20:05;9.60;1.00
3684;DHT22;1858;48.716;9.648;2024-03-29T05:22:34;9.60;1.00
3684;DHT22;1858;48.716;9.648;2024-03-29T05:25:02;9.60;1.00
3684;DHT22;1858;48.716;9.648;2024-03-29T05:27:31;9.60;1.00
3684;DHT22;1858;48.716;9.648;2024-03-29T05:30:00;9.60;1.00
3684;DHT22;1858;48.716;9.648;2024-03-29T05:32:30;9.70;1.00
3684;DHT22;1858;48.716;9.648;2024-03-29T05:34:59;9.60;1.00
3684;DHT22;1858;48.716;9.648;2024-03-29T05:37:46;9.60;1.00
3684;DHT22;1858;48.716;9.648;2024-03-29T05:40:16;9.60;1.00
3684;DHT22;1858;48.716;9.648;2024-03-29T05:42:45;9.60;1.00
3684;DHT22;1858;48.716;9.648;2024-03-29T05:45:25;9.70;1.00
3684;DHT22;1858;48.716;9.648;2024-03-29T05:47:54;9.70;1.00
3684;DHT22;1858;48.716;9.648;2024-03-29T05:50:24;9.80;1.00
3684;DHT22;1858;48.716;9.648;2024-03-29T05:52:53;9.80;1.00
3684;DHT22;1858;48.716;9.648;2024-03-29T05:55:21;9.80;1.00
3684;DHT22;1858;48.716;9.648;2024-03-29T05:57:50;9.80;1.00
3684;DHT22;1858;48.716;9.648;2024-03-29T06:00:18;9.90;1.00
3684;DHT22;1858;48.716;9.648;2024-03-29T06:02:47;9.90;1.00
3684;DHT22;1858;48.716;9.648;2024-03-29T06:05:16;10.00;1.00
3684;DHT22;1858;48.716;9.648;2024-03-29T06:07:44;10.00;1.00
3684;DHT22;1858;48.716;9.648;2024-03-29T06:10:12;10.00;1.00
3684;DHT22;1858;48.716;9.648;2024-03-29T06:12:42;9.90;1.00
3684;DHT22;1858;48.716;9.648;2024-03-29T06:15:10;9.90;1.00
3684;DHT22;1858;48.716;9.648;2024-03-29T06:17:56;9.90;1.00
3684;DHT22;1858;48.716;9.648;2024-03-29T06:20:25;10.00;1.00
3684;DHT22;1858;48.716;9.648;2024-03-29T06:22:53;10.00;1.00
3684;DHT22;1858;48.716;9.648;2024-03-29T06:25:22;10.00;1.00
3684;DHT22;1858;48.716;9.648;2024-03-29T06:27:50;10.20;1.00
3684;DHT22;1858;48.716;9.648;2024-03-29T06:30:18;10.20;1.00
3684;DHT22;1858;48.716;9.648;2024-03-29T06:32:49;10.20;1.00
3684;DHT22;1858;48.716;9.648;2024-03-29T06:35:18;10.30;1.00
3684;DHT22;1858;48.716;9.648;2024-03-29T06:37:48;10.40;1.00
3684;DHT22;1858;48.716;9.648;2024-03-29T06:40:16;10.50;1.00
3684;DHT22;1858;48.716;9.648;2024-03-29T06:42:45;10.50;1.00
3684;DHT22;1858;48.716;9.648;2024-03-29T06:45:13;10.50;1.00
3684;DHT22;1858;48.716;9.648;2024-03-29T06:47:41;10.50;1.00
3684;DHT22;1858;48.716;9.648;2024-03-29T06:50:10;10.50;1.00
3684;DHT22;1858;48.716;9.648;2024-03-29T06:52:41;10.50;1.00
3684;DHT22;1858;48.716;9.648;2024-03-29T06:55:10;10.60;1.00
3684;DHT22;1858;48.716;9.648;2024-03-29T06:57:39;10.60;1.00
3684;DHT22;1858;48.716;9.648;2024-03-29T07:02:58;10.80;1.00
3684;DHT22;1858;48.716;9.648;2024-03-29T07:05:26;10.90;1.00
3684;DHT22;1858;48.716;9.648;2024-03-29T07:07:53;11.00;1.00
3684;DHT22;1858;48.716;9.648;2024-03-29T07:10:22;11.00;1.00
3684;DHT22;1858;48.716;9.648;2024-03-29T07:12:50;11.10;1.00
3684;DHT22;1858;48.716;9.648;2024-03-29T07:15:17;11.20;1.00
3684;DHT22;1858;48.716;9.648;2024-03-29T07:17:50;11.20;1.00
3684;DHT22;1858;48.716;9.648;2024-03-29T07:20:16;11.20;1.00
3684;DHT22;1858;48.716;9.648;2024-03-29T07:22:50;11.20;1.00
3684;DHT22;1858;48.716;9.648;2024-03-29T07:25:17;11.20;1.00
3684;DHT22;1858;48.716;9.648;2024-03-29T07:27:45;11.20;1.00
3684;DHT22;1858;48.716;9.648;2024-03-29T07:30:13;11.30;1.00
3684;DHT22;1858;48.716;9.648;2024-03-29T07:32:41;11.40;1.00
3684;DHT22;1858;48.716;9.648;2024-03-29T07:35:08;11.40;1.00
3684;DHT22;1858;48.716;9.648;2024-03-29T07:37:36;11.40;1.00
3684;DHT22;1858;48.716;9.648;2024-03-29T07:40:05;11.30;1.00
3684;DHT22;1858;48.716;9.648;2024-03-29T07:42:35;11.20;1.00
3684;DHT22;1858;48.716;9.648;2024-03-29T07:45:04;10.90;1.00
3684;DHT22;1858;48.716;9.648;2024-03-29T07:47:32;10.50;1.00
3684;DHT22;1858;48.716;9.648;2024-03-29T07:50:01;10.20;1.00
3684;DHT22;1858;48.716;9.648;2024-03-29T07:52:30;10.00;1.00
3684;DHT22;1858;48.716;9.648;2024-03-29T07:54:58;9.80;1.00
3684;DHT22;1858;48.716;9.648;2024-03-29T07:57:27;9.60;1.00
3684;DHT22;1858;48.716;9.648;2024-03-29T07:59:56;9.30;1.00
3684;DHT22;1858;48.716;9.648;2024-03-29T08:02:24;9.20;1.00
3684;DHT22;1858;48.716;9.648;2024-03-29T08:04:53;9.10;68.60
3684;DHT22;1858;48.716;9.648;2024-03-29T08:07:21;8.90;99.90
3684;DHT22;1858;48.716;9.648;2024-03-29T08:09:50;8.90;99.90
3684;DHT22;1858;48.716;9.648;2024-03-29T08:12:18;8.90;99.90
3684;DHT22;1858;48.716;9.648;2024-03-29T08:14:47;9.00;99.90
3684;DHT22;1858;48.716;9.648;2024-03-29T08:17:16;9.20;99.90
3684;DHT22;1858;48.716;9.648;2024-03-29T08:19:44;9.20;99.90
3684;DHT22;1858;48.716;9.648;2024-03-29T08:22:32;9.30;99.90
3684;DHT22;1858;48.716;9.648;2024-03-29T08:25:00;9.50;99.90
3684;DHT22;1858;48.716;9.648;2024-03-29T08:27:28;9.70;99.90
3684;DHT22;1858;48.716;9.648;2024-03-29T08:29:55;10.00;99.90
3684;DHT22;1858;48.716;9.648;2024-03-29T08:32:23;10.30;99.90
3684;DHT22;1858;48.716;9.648;2024-03-29T08:34:51;10.40;99.90
3684;DHT22;1858;48.716;9.648;2024-03-29T08:37:19;10.60;99.90
3684;DHT22;1858;48.716;9.648;2024-03-29T08:39:47;11.00;99.90
3684;DHT22;1858;48.716;9.648;2024-03-29T08:42:15;11.40;99.90
3684;DHT22;1858;48.716;9.648;2024-03-29T08:45:04;11.80;99.90
3684;DHT22;1858;48.716;9.648;2024-03-29T08:47:34;12.10;99.90
3684;DHT22;1858;48.716;9.648;2024-03-29T08:50:03;12.60;99.90
3684;DHT22;1858;48.716;9.648;2024-03-29T08:52:31;12.80;99.90
3684;DHT22;1858;48.716;9.648;2024-03-29T08:55:19;13.00;99.90
3684;DHT22;1858;48.716;9.648;2024-03-29T08:57:48;13.30;99.90
3684;DHT22;1858;48.716;9.648;2024-03-29T09:00:16;13.80;61.40
3684;DHT22;1858;48.716;9.648;2024-03-29T09:02:46;14.30;1.00
3684;DHT22;1858;48.716;9.648;2024-03-29T09:05:14;14.70;1.00
3684;DHT22;1858;48.716;9.648;2024-03-29T09:07:43;15.10;1.00
3684;DHT22;1858;48.716;9.648;2024-03-29T09:10:13;15.10;1.00
3684;DHT22;1858;48.716;9.648;2024-03-29T09:12:41;15.10;1.00
3684;DHT22;1858;48.716;9.648;2024-03-29T09:15:10;14.80;1.00
3684;DHT22;1858;48.716;9.648;2024-03-29T09:17:40;14.70;1.00
3684;DHT22;1858;48.716;9.648;2024-03-29T09:22:51;14.50;1.00
3684;DHT22;1858;48.716;9.648;2024-03-29T09:25:20;14.50;1.00
3684;DHT22;1858;48.716;9.648;2024-03-29T09:27:48;14.40;1.00
3684;DHT22;1858;48.716;9.648;2024-03-29T09:30:17;14.50;1.00
3684;DHT22;1858;48.716;9.648;2024-03-29T09:32:47;14.50;1.00
3684;DHT22;1858;48.716;9.648;2024-03-29T09:35:18;14.50;1.00
3684;DHT22;1858;48.716;9.648;2024-03-29T09:38:06;14.60;1.00
3684;DHT22;1858;48.716;9.648;2024-03-29T09:40:35;14.60;1.00
3684;DHT22;1858;48.716;9.648;2024-03-29T09:43:03;14.60;1.00
3684;DHT22;1858;48.716;9.648;2024-03-29T09:45:34;14.60;1.00
3684;DHT22;1858;48.716;9.648;2024-03-29T09:48:04;14.60;1.00
3684;DHT22;1858;48.716;9.648;2024-03-29T09:50:36;14.60;1.00
3684;DHT22;1858;48.716;9.648;2024-03-29T09:53:05;14.60;1.00
3684;DHT22;1858;48.716;9.648;2024-03-29T09:55:37;14.60;1.00
3684;DHT22;1858;48.716;9.648;2024-03-29T09:58:06;14.50;1.00
3684;DHT22;1858;48.716;9.648;2024-03-29T10:00:34;14.50;1.00
3684;DHT22;1858;48.716;9.648;2024-03-29T10:03:06;14.40;1.00
3684;DHT22;1858;48.716;9.648;2024-03-29T10:05:35;14.40;1.00
3684;DHT22;1858;48.716;9.648;2024-03-29T10:08:05;14.40;1.00
3684;DHT22;1858;48.716;9.648;2024-03-29T10:10:34;14.60;1.00
3684;DHT22;1858;48.716;9.648;2024-03-29T10:13:22;14.80;1.00
3684;DHT22;1858;48.716;9.648;2024-03-29T10:18:47;15.00;1.00
3684;DHT22;1858;48.716;9.648;2024-03-29T10:21:14;15.00;1.00
3684;DHT22;1858;48.716;9.648;2024-03-29T10:23:43;15.00;1.00
3684;DHT22;1858;48.716;9.648;2024-03-29T10:26:13;15.00;1.00
3684;DHT22;1858;48.716;9.648;2024-03-29T10:31:35;15.10;1.00
3684;DHT22;1858;48.716;9.648;2024-03-29T10:34:27;15.10;1.00
3684;DHT22;1858;48.716;9.648;2024-03-29T10:36:57;15.10;1.00
3684;DHT22;1858;48.716;9.648;2024-03-29T10:39:25;15.00;1.00
3684;DHT22;1858;48.716;9.648;2024-03-29T10:41:55;15.00;1.00
3684;DHT22;1858;48.716;9.648;2024-03-29T10:44:25;15.00;1.00
3684;DHT22;1858;48.716;9.648;2024-03-29T10:46:56;15.10;1.00
3684;DHT22;1858;48.716;9.648;2024-03-29T10:49:26;15.20;1.00
3684;DHT22;1858;48.716;9.648;2024-03-29T10:51:57;15.40;1.00
3684;DHT22;1858;48.716;9.648;2024-03-29T10:54:27;15.30;1.00
3684;DHT22;1858;48.716;9.648;2024-03-29T10:57:22;15.40;1.00
3684;DHT22;1858;48.716;9.648;2024-03-29T11:05:36;15.40;1.00
3684;DHT22;1858;48.716;9.648;2024-03-29T11:08:06;15.50;1.00
3684;DHT22;1858;48.716;9.648;2024-03-29T11:10:44;15.70;1.00
3684;DHT22;1858;48.716;9.648;2024-03-29T11:13:31;15.80;1.00
3684;DHT22;1858;48.716;9.648;2024-03-29T11:15:57;15.90;1.00
3684;DHT22;1858;48.716;9.648;2024-03-29T11:18:30;16.00;1.00
3684;DHT22;1858;48.716;9.648;2024-03-29T11:21:00;16.10;1.00
3684;DHT22;1858;48.716;9.648;2024-03-29T11:23:31;15.90;1.00
3684;DHT22;1858;48.716;9.648;2024-03-29T11:26:00;15.90;1.00
3684;DHT22;1858;48.716;9.648;2024-03-29T11:28:30;15.90;1.00
3684;DHT22;1858;48.716;9.648;2024-03-29T11:31:09;15.90;1.00
3684;DHT22;1858;48.716;9.648;2024-03-29T11:36:24;16.00;1.00
3684;DHT22;1858;48.716;9.648;2024-03-29T11:38:56;16.20;1.00
3684;DHT22;1858;48.716;9.648;2024-03-29T11:41:26;16.20;1.00
3684;DHT22;1858;48.716;9.648;2024-03-29T11:43:55;16.30;1.00
3684;DHT22;1858;48.716;9.648;2024-03-29T11:46:25;16.40;1.00
3684;DHT22;1858;48.716;9.648;2024-03-29T11:48:53;16.60;1.00
3684;DHT22;1858;48.716;9.648;2024-03-29T11:51:22;16.70;1.00
3684;DHT22;1858;48.716;9.648;2024-03-29T11:53:54;16.80;1.00
3684;DHT22;1858;48.716;9.648;2024-03-29T11:56:22;16.80;1.00
3684;DHT22;1858;48.716;9.648;2024-03-29T11:58:51;16.70;99.90
3684;DHT22;1858;48.716;9.648;2024-03-29T12:01:21;16.70;1.00
3684;DHT22;1858;48.716;9.648;2024-03-29T12:03:51;16.80;1.00
3684;DHT22;1858;48.716;9.648;2024-03-29T12:06:38;16.90;99.90
3684;DHT22;1858;48.716;9.648;2024-03-29T12:09:08;16.80;99.90
3684;DHT22;1858;48.716;9.648;2024-03-29T12:11:37;16.70;99.90
3684;DHT22;1858;48.716;9.648;2024-03-29T12:14:13;16.80;99.90
3684;DHT22;1858;48.716;9.648;2024-03-29T12:16:45;17.10;99.90
3684;DHT22;1858;48.716;9.648;2024-03-29T12:19:26;17.40;99.90
3684;DHT22;1858;48.716;9.648;2024-03-29T12:21:59;17.80;99.90
3684;DHT22;1858;48.716;9.648;2024-03-29T12:24:27;18.10;99.90
3684;DHT22;1858;48.716;9.648;2024-03-29T12:26:56;18.30;99.90
3684;DHT22;1858;48.716;9.648;2024-03-29T12:29:25;18.60;99.90
3684;DHT22;1858;48.716;9.648;2024-03-29T12:32:00;18.70;99.90
3684;DHT22;1858;48.716;9.648;2024-03-29T12:34:28;18.90;99.90
3684;DHT22;1858;48.716;9.648;2024-03-29T12:37:17;19.00;99.90
3684;DHT22;1858;48.716;9.648;2024-03-29T12:39:47;19.00;99.90
3684;DHT22;1858;48.716;9.648;2024-03-29T12:42:17;19.00;99.90
3684;DHT22;1858;48.716;9.648;2024-03-29T12:44:45;18.90;99.90
3684;DHT22;1858;48.716;9.648;2024-03-29T12:47:15;18.80;99.90
3684;DHT22;1858;48.716;9.648;2024-03-29T12:49:43;19.00;99.90
3684;DHT22;1858;48.716;9.648;2024-03-29T12:52:12;19.20;99.90
3684;DHT22;1858;48.716;9.648;2024-03-29T12:54:39;19.40;99.90
3684;DHT22;1858;48.716;9.648;2024-03-29T12:57:07;19.60;99.90
3684;DHT22;1858;48.716;9.648;2024-03-29T12:59:35;19.70;99.90
3684;DHT22;1858;48.716;9.648;2024-03-29T13:02:04;19.60;99.90
3684;DHT22;1858;48.716;9.648;2024-03-29T13:04:31;19.70;99.90
3684;DHT22;1858;48.716;9.648;2024-03-29T13:06:59;19.80;99.90
3684;DHT22;1858;48.716;9.648;2024-03-29T13:09:26;19.90;99.90
3684;DHT22;1858;48.716;9.648;2024-03-29T13:11:55;19.80;99.90
3684;DHT22;1858;48.716;9.648;2024-03-29T13:14:24;19.80;99.90
3684;DHT22;1858;48.716;9.648;2024-03-29T13:16:52;19.70;99.90
3684;DHT22;1858;48.716;9.648;2024-03-29T13:19:20;19.70;99.90
3684;DHT22;1858;48.716;9.648;2024-03-29T13:21:47;19.90;99.90
3684;DHT22;1858;48.716;9.648;2024-03-29T13:24:15;20.00;99.90
3684;DHT22;1858;48.716;9.648;2024-03-29T13:26:42;20.20;99.90
3684;DHT22;1858;48.716;9.648;2024-03-29T13:29:11;20.00;99.90
3684;DHT22;1858;48.716;9.648;2024-03-29T13:31:41;19.80;99.90
3684;DHT22;1858;48.716;9.648;2024-03-29T13:34:09;19.60;99.90
3684;DHT22;1858;48.716;9.648;2024-03-29T13:36:41;19.40;99.90
3684;DHT22;1858;48.716;9.648;2024-03-29T13:39:11;19.20;99.90
3684;DHT22;1858;48.716;9.648;2024-03-29T13:41:41;19.10;99.90
3684;DHT22;1858;48.716;9.648;2024-03-29T13:44:11;19.00;99.90
3684;DHT22;1858;48.716;9.648;2024-03-29T13:46:41;18.90;99.90
3684;DHT22;1858;48.716;9.648;2024-03-29T13:49:09;18.90;99.90
3684;DHT22;1858;48.716;9.648;2024-03-29T13:51:59;18.90;99.90
3684;DHT22;1858;48.716;9.648;2024-03-29T13:54:27;18.80;99.90
3684;DHT22;1858;48.716;9.648;2024-03-29T13:56:57;18.80;99.90
3684;DHT22;1858;48.716;9.648;2024-03-29T13:59:26;18.70;99.90
3684;DHT22;1858;48.716;9.648;2024-03-29T14:01:55;18.70;99.90
3684;DHT22;1858;48.716;9.648;2024-03-29T14:04:24;18.70;99.90
3684;DHT22;1858;48.716;9.648;2024-03-29T14:06:52;18.70;99.90
3684;DHT22;1858;48.716;9.648;2024-03-29T14:09:40;18.70;99.90
3684;DHT22;1858;48.716;9.648;2024-03-29T14:12:09;18.70;99.90
3684;DHT22;1858;48.716;9.648;2024-03-29T14:14:38;18.70;99.90
3684;DHT22;1858;48.716;9.648;2024-03-29T14:17:06;18.70;99.90
3684;DHT22;1858;48.716;9.648;2024-03-29T14:19:39;18.70;99.90
3684;DHT22;1858;48.716;9.648;2024-03-29T14:22:09;18.70;99.90
3684;DHT22;1858;48.716;9.648;2024-03-29T14:24:39;18.70;99.90
3684;DHT22;1858;48.716;9.648;2024-03-29T14:27:08;18.80;99.90
3684;DHT22;1858;48.716;9.648;2024-03-29T14:29:38;18.80;99.90
3684;DHT22;1858;48.716;9.648;2024-03-29T14:32:07;18.80;99.90
3684;DHT22;1858;48.716;9.648;2024-03-29T14:34:35;18.80;99.90
3684;DHT22;1858;48.716;9.648;2024-03-29T14:37:05;18.80;99.90
3684;DHT22;1858;48.716;9.648;2024-03-29T14:39:35;18.80;99.90
3684;DHT22;1858;48.716;9.648;2024-03-29T14:42:04;18.80;99.90
3684;DHT22;1858;48.716;9.648;2024-03-29T14:44:53;18.70;99.90
3684;DHT22;1858;48.716;9.648;2024-03-29T14:47:21;18.70;99.90
3684;DHT22;1858;48.716;9.648;2024-03-29T14:49:50;18.70;99.90
3684;DHT22;1858;48.716;9.648;2024-03-29T14:52:18;18.70;99.90
3684;DHT22;1858;48.716;9.648;2024-03-29T14:54:47;18.60;99.90
3684;DHT22;1858;48.716;9.648;2024-03-29T14:57:15;18.60;99.90
3684;DHT22;1858;48.716;9.648;2024-03-29T14:59:45;18.70;99.90
3684;DHT22;1858;48.716;9.648;2024-03-29T15:02:14;18.70;99.90
3684;DHT22;1858;48.716;9.648;2024-03-29T15:04:43;18.70;99.90
3684;DHT22;1858;48.716;9.648;2024-03-29T15:07:11;18.90;99.90
3684;DHT22;1858;48.716;9.648;2024-03-29T15:09:39;18.90;99.90
3684;DHT22;1858;48.716;9.648;2024-03-29T15:12:08;19.00;99.90
3684;DHT22;1858;48.716;9.648;2024-03-29T15:14:36;18.90;99.90
3684;DHT22;1858;48.716;9.648;2024-03-29T15:17:05;19.00;99.90
3684;DHT22;1858;48.716;9.648;2024-03-29T15:19:34;19.00;99.90
3684;DHT22;1858;48.716;9.648;2024-03-29T15:22:02;19.10;99.90
3684;DHT22;1858;48.716;9.648;2024-03-29T15:24:50;19.10;99.90
3684;DHT22;1858;48.716;9.648;2024-03-29T15:27:20;19.10;99.90
3684;DHT22;1858;48.716;9.648;2024-03-29T15:30:15;19.00;99.90
3684;DHT22;1858;48.716;9.648;2024-03-29T15:32:44;19.00;99.90
3684;DHT22;1858;48.716;9.648;2024-03-29T15:35:12;19.00;99.90
3684;DHT22;1858;48.716;9.648;2024-03-29T15:37:41;18.90;99.90
3684;DHT22;1858;48.716;9.648;2024-03-29T15:40:09;18.90;99.90
3684;DHT22;1858;48.716;9.648;2024-03-29T15:42:38;18.90;99.90
3684;DHT22;1858;48.716;9.648;2024-03-29T15:45:09;18.80;99.90
3684;DHT22;1858;48.716;9.648;2024-03-29T15:47:37;18.80;99.90
3684;DHT22;1858;48.716;9.648;2024-03-29T15:50:06;18.70;99.90
3684;DHT22;1858;48.716;9.648;2024-03-29T15:52:35;18.70;99.90
3684;DHT22;1858;48.716;9.648;2024-03-29T15:55:04;18.60;99.90
3684;DHT22;1858;48.716;9.648;2024-03-29T15:57:32;18.50;99.90
3684;DHT22;1858;48.716;9.648;2024-03-29T16:00:00;18.50;99.90
3684;DHT22;1858;48.716;9.648;2024-03-29T16:02:29;18.50;99.90
3684;DHT22;1858;48.716;9.648;2024-03-29T16:04:57;18.30;99.90
3684;DHT22;1858;48.716;9.648;2024-03-29T16:07:26;18.20;99.90
3684;DHT22;1858;48.716;9.648;2024-03-29T16:09:54;18.20;99.90
3684;DHT22;1858;48.716;9.648;2024-03-29T16:12:24;18.20;99.90
3684;DHT22;1858;48.716;9.648;2024-03-29T16:14:52;18.10;99.90
3684;DHT22;1858;48.716;9.648;2024-03-29T16:17:21;18.10;99.90
3684;DHT22;1858;48.716;9.648;2024-03-29T16:19:49;18.00;99.90
3684;DHT22;1858;48.716;9.648;2024-03-29T16:22:18;17.90;99.90
3684;DHT22;1858;48.716;9.648;2024-03-29T16:24:46;17.80;99.90
3684;DHT22;1858;48.716;9.648;2024-03-29T16:27:14;17.70;1.00
3684;DHT22;1858;48.716;9.648;2024-03-29T16:29:43;17.50;1.00
3684;DHT22;1858;48.716;9.648;2024-03-29T16:32:12;17.50;1.00
3684;DHT22;1858;48.716;9.648;2024-03-29T16:34:40;17.50;1.00
3684;DHT22;1858;48.716;9.648;2024-03-29T16:37:09;17.40;1.00
3684;DHT22;1858;48.716;9.648;2024-03-29T16:39:38;17.30;1.00
3684;DHT22;1858;48.716;9.648;2024-03-29T16:42:06;17.20;1.00
3684;DHT22;1858;48.716;9.648;2024-03-29T16:44:34;17.10;1.00
3684;DHT22;1858;48.716;9.648;2024-03-29T16:47:03;17.00;1.00
3684;DHT22;1858;48.716;9.648;2024-03-29T16:49:31;16.90;1.00
3684;DHT22;1858;48.716;9.648;2024-03-29T16:52:02;16.90;1.00
3684;DHT22;1858;48.716;9.648;2024-03-29T16:54:53;16.80;1.00
3684;DHT22;1858;48.716;9.648;2024-03-29T16:57:20;16.80;1.00